Pagrindinis puslapis
METAR-TAF:

METAR-TAF

Oro uostai :

Pucallpa, Peru

platuma: 08-25S, ilguma: 074-36W, Aukštis: 148 m

Dabartinis oras

Ataskaita buvo paskelbta 28 minutes, ne 14:00 UTC
Vėjas 4 kt iš Pietų/Pietryčių
Temperatūra 29°C
Drėgmė 70%
Slėgis 1012 hPa
Matomumas: 8000 m
Išsisklaidę debesys ne aukštis 2500 ft

METAR: SPCL 201400Z 16004KT 8000 SCT025 29/23 Q1012 RMK HZ BIRD HAZARD RWY 02/20 PP000

Laikas: 09:28 (14:28 UTC)

Prognozė

Ataskaita buvo paskelbta 3 valandos ir 28 minutes, ne 11:00 UTC
Prognozė galioja nuo 20 metu 12 UTC su 21 metu 12 UTC
Vėjas 3 kt iš Pietų/Pietvakarių
Matomumas 10 km arba daugiau
Išsisklaidę debesys ne aukštis 2000 ft
Tapsmas
nuo 20 metu 16 UTC su 20 metu 18 UTC
Vėjas 4 kt iš Šiaurės/Šiaurės Rytų
Su prošvaistėmis ne aukštis 2000 ft
Tapsmas
nuo 21 metu 00 UTC su 21 metu 02 UTC
Vėjas 2 kt nuo kintamojo kryptimis
Išsisklaidę debesys ne aukštis 2000 ft

TAF: SPCL 201100Z 2012/2112 21003KT 9999 SCT020 TX35/2020Z TN24/2111Z BECMG 2016/2018 03004KT BKN020 BECMG 2100/2102 VRB02KT SCT020

Orai ataskaitas ir orų prognozės (METAR, TAF).

turimą stotys yra geltonos ir raudonos taškus žemėlapyje.

Perkelti pele per norėdami pamatyti stoties vardą.

Tada spustelėkite, norėdami matyti oro stebėjimo ir prognozės.

Norėdami pakeisti žemėlapį: spustelėkite ant žalios mygtukų su juodo kryžiaus žemyn,; žalią mygtuką su brūkšneliu, jei norite nutolinti; arba žalių rodyklių gretimoms žemėlapius.


METAR-TAF: